Archival Weather

Abadan

Abadan, Iran (OIAA)

Report from: Wednesday, December 6, 2023 5:00 AM UTC
Current time: Sunday, February 25, 2024 10:34 PM UTC

Current weather – Weather history – Daily summaries
Weather forecast

Present weatherHaze
Temperature12.0°C (53.6°F)
Dew point6.0°C (42.8°F)
Winds 4 kts (2.1 m/s, 4.6 mph) West (280°)
Visibility3.1 mi. (5 km)
Altimeter30.06 in.Hg (1018 mB)
Relative humidity67 %
Density altitude-382 ft. (-116 m)
Flight conditions Marginal Visual Meteorological Conditions
Raw dataOIAA 060500Z 28004KT 5000 HZ NSC 12/06 Q1018
An error has occurred. This application may no longer respond until reloaded. Reload 🗙